sensor_id;sensor_type;location;lat;lon;timestamp;P1;durP1;ratioP1;P2;durP2;ratioP2
69906;SDS011;57190;47.918;8.112;2022-09-02T00:01:48;4.47;;;4.18;;
69906;SDS011;57190;47.918;8.112;2022-09-02T00:04:15;4.80;;;4.50;;
69906;SDS011;57190;47.918;8.112;2022-09-02T00:06:51;4.57;;;4.32;;
69906;SDS011;57190;47.918;8.112;2022-09-02T00:09:19;4.22;;;4.03;;
69906;SDS011;57190;47.918;8.112;2022-09-02T00:11:47;4.40;;;4.10;;
69906;SDS011;57190;47.918;8.112;2022-09-02T00:14:17;4.28;;;3.97;;
69906;SDS011;57190;47.918;8.112;2022-09-02T00:16:48;3.78;;;3.58;;
69906;SDS011;57190;47.918;8.112;2022-09-02T00:19:18;4.55;;;4.25;;
69906;SDS011;57190;47.918;8.112;2022-09-02T00:21:45;4.22;;;3.92;;
69906;SDS011;57190;47.918;8.112;2022-09-02T00:24:11;4.05;;;3.80;;
69906;SDS011;57190;47.918;8.112;2022-09-02T00:26:37;4.30;;;4.00;;
69906;SDS011;57190;47.918;8.112;2022-09-02T00:29:03;4.65;;;4.30;;
69906;SDS011;57190;47.918;8.112;2022-09-02T00:31:30;4.28;;;4.03;;
69906;SDS011;57190;47.918;8.112;2022-09-02T00:33:57;5.05;;;4.65;;
69906;SDS011;57190;47.918;8.112;2022-09-02T00:36:23;5.07;;;4.68;;
69906;SDS011;57190;47.918;8.112;2022-09-02T00:38:50;4.57;;;4.28;;
69906;SDS011;57190;47.918;8.112;2022-09-02T00:41:17;4.40;;;4.20;;
69906;SDS011;57190;47.918;8.112;2022-09-02T00:43:48;4.63;;;4.32;;
69906;SDS011;57190;47.918;8.112;2022-09-02T00:46:22;4.93;;;4.63;;
69906;SDS011;57190;47.918;8.112;2022-09-02T00:48:55;4.45;;;4.15;;
69906;SDS011;57190;47.918;8.112;2022-09-02T00:51:24;4.57;;;4.28;;
69906;SDS011;57190;47.918;8.112;2022-09-02T00:53:52;4.53;;;4.20;;
69906;SDS011;57190;47.918;8.112;2022-09-02T00:56:19;4.00;;;3.80;;
69906;SDS011;57190;47.918;8.112;2022-09-02T00:58:49;3.85;;;3.65;;
69906;SDS011;57190;47.918;8.112;2022-09-02T01:01:16;3.70;;;3.40;;
69906;SDS011;57190;47.918;8.112;2022-09-02T01:03:42;4.35;;;4.05;;
69906;SDS011;57190;47.918;8.112;2022-09-02T01:06:11;4.18;;;3.88;;
69906;SDS011;57190;47.918;8.112;2022-09-02T01:08:39;3.90;;;3.63;;
69906;SDS011;57190;47.918;8.112;2022-09-02T01:11:10;3.45;;;3.25;;
69906;SDS011;57190;47.918;8.112;2022-09-02T01:13:38;3.75;;;3.45;;
69906;SDS011;57190;47.918;8.112;2022-09-02T01:16:25;3.78;;;3.58;;
69906;SDS011;57190;47.918;8.112;2022-09-02T01:18:57;3.35;;;3.05;;
69906;SDS011;57190;47.918;8.112;2022-09-02T01:21:26;3.60;;;3.40;;
69906;SDS011;57190;47.918;8.112;2022-09-02T01:23:52;3.45;;;3.25;;
69906;SDS011;57190;47.918;8.112;2022-09-02T01:26:18;3.83;;;3.53;;
69906;SDS011;57190;47.918;8.112;2022-09-02T01:28:44;3.80;;;3.60;;
69906;SDS011;57190;47.918;8.112;2022-09-02T01:31:09;3.22;;;3.03;;
69906;SDS011;57190;47.918;8.112;2022-09-02T01:33:35;4.32;;;3.95;;
69906;SDS011;57190;47.918;8.112;2022-09-02T01:36:01;3.25;;;3.05;;
69906;SDS011;57190;47.918;8.112;2022-09-02T01:38:29;3.38;;;3.17;;
69906;SDS011;57190;47.918;8.112;2022-09-02T01:40:55;3.60;;;3.30;;
69906;SDS011;57190;47.918;8.112;2022-09-02T01:43:23;3.03;;;2.83;;
69906;SDS011;57190;47.918;8.112;2022-09-02T01:45:51;3.45;;;3.25;;
69906;SDS011;57190;47.918;8.112;2022-09-02T01:48:19;4.28;;;3.88;;
69906;SDS011;57190;47.918;8.112;2022-09-02T01:50:47;3.58;;;3.30;;
69906;SDS011;57190;47.918;8.112;2022-09-02T01:53:15;3.25;;;3.05;;
69906;SDS011;57190;47.918;8.112;2022-09-02T01:55:40;3.15;;;2.95;;
69906;SDS011;57190;47.918;8.112;2022-09-02T01:58:06;3.00;;;2.80;;
69906;SDS011;57190;47.918;8.112;2022-09-02T02:00:33;2.88;;;2.78;;
69906;SDS011;57190;47.918;8.112;2022-09-02T02:02:58;3.50;;;3.30;;
69906;SDS011;57190;47.918;8.112;2022-09-02T02:05:24;3.65;;;3.28;;
69906;SDS011;57190;47.918;8.112;2022-09-02T02:07:50;3.20;;;3.00;;
69906;SDS011;57190;47.918;8.112;2022-09-02T02:10:19;3.85;;;3.55;;
69906;SDS011;57190;47.918;8.112;2022-09-02T02:12:46;3.58;;;3.30;;
69906;SDS011;57190;47.918;8.112;2022-09-02T02:15:13;3.45;;;3.25;;
69906;SDS011;57190;47.918;8.112;2022-09-02T02:17:41;3.38;;;3.17;;
69906;SDS011;57190;47.918;8.112;2022-09-02T02:20:07;2.90;;;2.72;;
69906;SDS011;57190;47.918;8.112;2022-09-02T02:22:34;3.35;;;3.15;;
69906;SDS011;57190;47.918;8.112;2022-09-02T02:25:00;4.00;;;3.05;;
69906;SDS011;57190;47.918;8.112;2022-09-02T02:27:26;3.22;;;3.03;;
69906;SDS011;57190;47.918;8.112;2022-09-02T02:29:52;3.33;;;3.03;;
69906;SDS011;57190;47.918;8.112;2022-09-02T02:32:17;2.90;;;2.70;;
69906;SDS011;57190;47.918;8.112;2022-09-02T02:34:44;3.30;;;3.10;;
69906;SDS011;57190;47.918;8.112;2022-09-02T02:37:10;3.05;;;2.83;;
69906;SDS011;57190;47.918;8.112;2022-09-02T02:39:37;3.05;;;2.85;;
69906;SDS011;57190;47.918;8.112;2022-09-02T02:42:04;2.72;;;2.53;;
69906;SDS011;57190;47.918;8.112;2022-09-02T02:44:31;2.88;;;2.67;;
69906;SDS011;57190;47.918;8.112;2022-09-02T02:46:56;2.53;;;2.40;;
69906;SDS011;57190;47.918;8.112;2022-09-02T02:49:22;2.75;;;2.55;;
69906;SDS011;57190;47.918;8.112;2022-09-02T02:51:48;2.78;;;2.58;;
69906;SDS011;57190;47.918;8.112;2022-09-02T02:54:13;2.75;;;2.58;;
69906;SDS011;57190;47.918;8.112;2022-09-02T02:56:39;2.65;;;2.45;;
69906;SDS011;57190;47.918;8.112;2022-09-02T02:59:05;2.53;;;2.28;;
69906;SDS011;57190;47.918;8.112;2022-09-02T03:01:31;2.30;;;2.20;;
69906;SDS011;57190;47.918;8.112;2022-09-02T03:03:57;2.42;;;2.22;;
69906;SDS011;57190;47.918;8.112;2022-09-02T03:06:23;2.58;;;2.20;;
69906;SDS011;57190;47.918;8.112;2022-09-02T03:08:49;2.30;;;2.20;;
69906;SDS011;57190;47.918;8.112;2022-09-02T03:11:15;2.38;;;2.28;;
69906;SDS011;57190;47.918;8.112;2022-09-02T03:13:42;2.70;;;2.50;;
69906;SDS011;57190;47.918;8.112;2022-09-02T03:16:07;2.10;;;2.00;;
69906;SDS011;57190;47.918;8.112;2022-09-02T03:18:33;2.90;;;2.60;;
69906;SDS011;57190;47.918;8.112;2022-09-02T03:20:59;2.42;;;2.22;;
69906;SDS011;57190;47.918;8.112;2022-09-02T03:23:25;2.75;;;2.63;;
69906;SDS011;57190;47.918;8.112;2022-09-02T03:25:51;2.33;;;2.22;;
69906;SDS011;57190;47.918;8.112;2022-09-02T03:28:17;2.60;;;2.40;;
69906;SDS011;57190;47.918;8.112;2022-09-02T03:30:43;3.08;;;2.45;;
69906;SDS011;57190;47.918;8.112;2022-09-02T03:33:10;2.55;;;2.35;;
69906;SDS011;57190;47.918;8.112;2022-09-02T03:35:38;2.10;;;2.00;;
69906;SDS011;57190;47.918;8.112;2022-09-02T03:38:06;2.65;;;2.00;;
69906;SDS011;57190;47.918;8.112;2022-09-02T03:40:33;2.72;;;2.42;;
69906;SDS011;57190;47.918;8.112;2022-09-02T03:42:59;2.20;;;1.90;;
69906;SDS011;57190;47.918;8.112;2022-09-02T03:45:24;2.70;;;1.92;;
69906;SDS011;57190;47.918;8.112;2022-09-02T03:47:50;2.58;;;2.30;;
69906;SDS011;57190;47.918;8.112;2022-09-02T03:50:28;2.72;;;2.13;;
69906;SDS011;57190;47.918;8.112;2022-09-02T03:52:57;2.28;;;2.08;;
69906;SDS011;57190;47.918;8.112;2022-09-02T03:55:24;1.83;;;1.73;;
69906;SDS011;57190;47.918;8.112;2022-09-02T03:57:51;2.10;;;2.00;;
69906;SDS011;57190;47.918;8.112;2022-09-02T04:00:17;2.63;;;2.40;;
69906;SDS011;57190;47.918;8.112;2022-09-02T04:02:45;2.20;;;2.10;;
69906;SDS011;57190;47.918;8.112;2022-09-02T04:05:11;2.30;;;2.10;;
69906;SDS011;57190;47.918;8.112;2022-09-02T04:07:38;1.83;;;1.73;;
69906;SDS011;57190;47.918;8.112;2022-09-02T04:10:04;2.00;;;1.90;;
69906;SDS011;57190;47.918;8.112;2022-09-02T04:12:33;2.10;;;2.00;;
69906;SDS011;57190;47.918;8.112;2022-09-02T04:14:59;2.47;;;2.30;;
69906;SDS011;57190;47.918;8.112;2022-09-02T04:17:26;2.15;;;1.90;;
69906;SDS011;57190;47.918;8.112;2022-09-02T04:19:53;2.33;;;2.13;;
69906;SDS011;57190;47.918;8.112;2022-09-02T04:22:18;1.80;;;1.70;;
69906;SDS011;57190;47.918;8.112;2022-09-02T04:24:44;2.17;;;2.08;;
69906;SDS011;57190;47.918;8.112;2022-09-02T04:27:09;2.17;;;2.08;;
69906;SDS011;57190;47.918;8.112;2022-09-02T04:29:35;2.65;;;1.77;;
69906;SDS011;57190;47.918;8.112;2022-09-02T04:32:01;2.17;;;1.75;;
69906;SDS011;57190;47.918;8.112;2022-09-02T04:34:26;1.90;;;1.80;;
69906;SDS011;57190;47.918;8.112;2022-09-02T04:36:52;2.20;;;2.10;;
69906;SDS011;57190;47.918;8.112;2022-09-02T04:39:17;1.98;;;1.80;;
69906;SDS011;57190;47.918;8.112;2022-09-02T04:41:43;2.40;;;2.20;;
69906;SDS011;57190;47.918;8.112;2022-09-02T04:44:09;1.65;;;1.50;;
69906;SDS011;57190;47.918;8.112;2022-09-02T04:46:35;1.70;;;1.60;;
69906;SDS011;57190;47.918;8.112;2022-09-02T04:49:01;1.80;;;1.70;;
69906;SDS011;57190;47.918;8.112;2022-09-02T04:51:28;1.80;;;1.70;;
69906;SDS011;57190;47.918;8.112;2022-09-02T04:53:54;2.22;;;2.03;;
69906;SDS011;57190;47.918;8.112;2022-09-02T04:56:24;1.75;;;1.65;;
69906;SDS011;57190;47.918;8.112;2022-09-02T04:58:53;1.90;;;1.80;;
69906;SDS011;57190;47.918;8.112;2022-09-02T05:01:21;1.70;;;1.60;;
69906;SDS011;57190;47.918;8.112;2022-09-02T05:03:49;2.00;;;1.90;;
69906;SDS011;57190;47.918;8.112;2022-09-02T05:06:17;1.95;;;1.85;;
69906;SDS011;57190;47.918;8.112;2022-09-02T05:08:44;2.05;;;1.90;;
69906;SDS011;57190;47.918;8.112;2022-09-02T05:11:13;1.60;;;1.50;;
69906;SDS011;57190;47.918;8.112;2022-09-02T05:13:44;1.52;;;1.42;;
69906;SDS011;57190;47.918;8.112;2022-09-02T05:16:19;2.58;;;1.60;;
69906;SDS011;57190;47.918;8.112;2022-09-02T05:18:47;1.80;;;1.70;;
69906;SDS011;57190;47.918;8.112;2022-09-02T05:21:13;2.30;;;2.10;;
69906;SDS011;57190;47.918;8.112;2022-09-02T05:23:39;1.55;;;1.40;;
69906;SDS011;57190;47.918;8.112;2022-09-02T05:26:05;2.13;;;1.92;;
69906;SDS011;57190;47.918;8.112;2022-09-02T05:28:32;1.92;;;1.83;;
69906;SDS011;57190;47.918;8.112;2022-09-02T05:31:02;1.88;;;1.65;;
69906;SDS011;57190;47.918;8.112;2022-09-02T05:33:30;1.77;;;1.67;;
69906;SDS011;57190;47.918;8.112;2022-09-02T05:35:57;1.58;;;1.48;;
69906;SDS011;57190;47.918;8.112;2022-09-02T05:38:23;1.85;;;1.63;;
69906;SDS011;57190;47.918;8.112;2022-09-02T05:40:49;1.70;;;1.60;;
69906;SDS011;57190;47.918;8.112;2022-09-02T05:43:15;2.25;;;1.80;;
69906;SDS011;57190;47.918;8.112;2022-09-02T05:45:41;2.42;;;2.22;;
69906;SDS011;57190;47.918;8.112;2022-09-02T05:48:06;1.63;;;1.52;;
69906;SDS011;57190;47.918;8.112;2022-09-02T05:50:52;1.58;;;1.48;;
69906;SDS011;57190;47.918;8.112;2022-09-02T05:53:17;1.10;;;1.10;;
69906;SDS011;57190;47.918;8.112;2022-09-02T05:55:43;2.03;;;1.55;;
69906;SDS011;57190;47.918;8.112;2022-09-02T05:58:09;2.88;;;1.55;;
69906;SDS011;57190;47.918;8.112;2022-09-02T06:00:34;1.77;;;1.67;;
69906;SDS011;57190;47.918;8.112;2022-09-02T06:03:01;1.80;;;1.65;;
69906;SDS011;57190;47.918;8.112;2022-09-02T06:05:26;1.65;;;1.55;;
69906;SDS011;57190;47.918;8.112;2022-09-02T06:07:52;2.05;;;1.80;;
69906;SDS011;57190;47.918;8.112;2022-09-02T06:10:17;2.10;;;2.00;;
69906;SDS011;57190;47.918;8.112;2022-09-02T06:12:43;1.80;;;1.70;;
69906;SDS011;57190;47.918;8.112;2022-09-02T06:15:09;1.40;;;1.40;;
69906;SDS011;57190;47.918;8.112;2022-09-02T06:17:35;1.98;;;1.88;;
69906;SDS011;57190;47.918;8.112;2022-09-02T06:20:01;1.70;;;1.60;;
69906;SDS011;57190;47.918;8.112;2022-09-02T06:22:27;2.08;;;1.70;;
69906;SDS011;57190;47.918;8.112;2022-09-02T06:24:52;1.90;;;1.80;;
69906;SDS011;57190;47.918;8.112;2022-09-02T06:27:18;1.88;;;1.77;;
69906;SDS011;57190;47.918;8.112;2022-09-02T06:29:43;1.67;;;1.58;;
69906;SDS011;57190;47.918;8.112;2022-09-02T06:32:10;1.88;;;1.67;;
69906;SDS011;57190;47.918;8.112;2022-09-02T06:34:35;1.40;;;1.30;;
69906;SDS011;57190;47.918;8.112;2022-09-02T06:37:01;1.67;;;1.58;;
69906;SDS011;57190;47.918;8.112;2022-09-02T06:39:27;1.63;;;1.52;;
69906;SDS011;57190;47.918;8.112;2022-09-02T06:41:53;1.73;;;1.58;;
69906;SDS011;57190;47.918;8.112;2022-09-02T06:44:19;1.95;;;1.85;;
69906;SDS011;57190;47.918;8.112;2022-09-02T06:46:52;1.65;;;1.45;;
69906;SDS011;57190;47.918;8.112;2022-09-02T06:49:20;1.95;;;1.85;;
69906;SDS011;57190;47.918;8.112;2022-09-02T06:51:47;1.88;;;1.73;;
69906;SDS011;57190;47.918;8.112;2022-09-02T06:54:15;2.03;;;1.80;;
69906;SDS011;57190;47.918;8.112;2022-09-02T06:56:43;1.80;;;1.67;;
69906;SDS011;57190;47.918;8.112;2022-09-02T06:59:09;1.50;;;1.40;;
69906;SDS011;57190;47.918;8.112;2022-09-02T07:01:35;1.77;;;1.67;;
69906;SDS011;57190;47.918;8.112;2022-09-02T07:04:01;2.13;;;1.92;;
69906;SDS011;57190;47.918;8.112;2022-09-02T07:06:47;1.70;;;1.60;;
69906;SDS011;57190;47.918;8.112;2022-09-02T07:09:17;2.45;;;1.58;;
69906;SDS011;57190;47.918;8.112;2022-09-02T07:11:44;1.90;;;1.80;;
69906;SDS011;57190;47.918;8.112;2022-09-02T07:14:12;1.80;;;1.70;;
69906;SDS011;57190;47.918;8.112;2022-09-02T07:16:49;1.75;;;1.65;;
69906;SDS011;57190;47.918;8.112;2022-09-02T07:19:16;1.67;;;1.58;;
69906;SDS011;57190;47.918;8.112;2022-09-02T07:21:43;1.60;;;1.50;;
69906;SDS011;57190;47.918;8.112;2022-09-02T07:24:10;1.80;;;1.70;;
69906;SDS011;57190;47.918;8.112;2022-09-02T07:26:38;1.92;;;1.83;;
69906;SDS011;57190;47.918;8.112;2022-09-02T07:29:05;1.80;;;1.70;;
69906;SDS011;57190;47.918;8.112;2022-09-02T07:31:33;2.28;;;1.60;;
69906;SDS011;57190;47.918;8.112;2022-09-02T07:34:00;1.42;;;1.40;;
69906;SDS011;57190;47.918;8.112;2022-09-02T07:36:28;2.75;;;1.80;;
69906;SDS011;57190;47.918;8.112;2022-09-02T07:38:54;1.48;;;1.38;;
69906;SDS011;57190;47.918;8.112;2022-09-02T07:41:20;1.70;;;1.60;;
69906;SDS011;57190;47.918;8.112;2022-09-02T07:43:46;1.95;;;1.77;;
69906;SDS011;57190;47.918;8.112;2022-09-02T07:46:12;3.22;;;2.47;;
69906;SDS011;57190;47.918;8.112;2022-09-02T07:48:38;1.83;;;1.73;;
69906;SDS011;57190;47.918;8.112;2022-09-02T07:51:04;1.50;;;1.40;;
69906;SDS011;57190;47.918;8.112;2022-09-02T07:53:32;1.52;;;1.42;;
69906;SDS011;57190;47.918;8.112;2022-09-02T07:55:58;3.05;;;1.95;;
69906;SDS011;57190;47.918;8.112;2022-09-02T07:58:24;1.65;;;1.55;;
69906;SDS011;57190;47.918;8.112;2022-09-02T08:00:50;1.48;;;1.38;;
69906;SDS011;57190;47.918;8.112;2022-09-02T08:03:17;1.55;;;1.45;;
69906;SDS011;57190;47.918;8.112;2022-09-02T08:05:44;1.83;;;1.63;;
69906;SDS011;57190;47.918;8.112;2022-09-02T08:08:11;2.33;;;1.50;;
69906;SDS011;57190;47.918;8.112;2022-09-02T08:10:38;1.67;;;1.58;;
69906;SDS011;57190;47.918;8.112;2022-09-02T08:13:04;2.22;;;2.00;;
69906;SDS011;57190;47.918;8.112;2022-09-02T08:15:31;2.33;;;1.67;;
69906;SDS011;57190;47.918;8.112;2022-09-02T08:17:57;1.60;;;1.50;;
69906;SDS011;57190;47.918;8.112;2022-09-02T08:20:24;2.78;;;1.98;;
69906;SDS011;57190;47.918;8.112;2022-09-02T08:22:49;1.30;;;1.20;;
69906;SDS011;57190;47.918;8.112;2022-09-02T08:25:15;1.80;;;1.70;;
69906;SDS011;57190;47.918;8.112;2022-09-02T08:27:42;1.80;;;1.70;;
69906;SDS011;57190;47.918;8.112;2022-09-02T08:30:09;2.17;;;1.75;;
69906;SDS011;57190;47.918;8.112;2022-09-02T08:32:35;3.70;;;2.20;;
69906;SDS011;57190;47.918;8.112;2022-09-02T08:35:04;2.22;;;1.40;;
69906;SDS011;57190;47.918;8.112;2022-09-02T08:37:32;1.67;;;1.58;;
69906;SDS011;57190;47.918;8.112;2022-09-02T08:39:59;1.90;;;1.70;;
69906;SDS011;57190;47.918;8.112;2022-09-02T08:45:44;1.40;;;1.30;;
69906;SDS011;57190;47.918;8.112;2022-09-02T08:47:57;1.67;;;1.58;;
69906;SDS011;57190;47.918;8.112;2022-09-02T08:50:29;1.70;;;1.30;;
69906;SDS011;57190;47.918;8.112;2022-09-02T08:52:59;1.65;;;1.55;;
69906;SDS011;57190;47.918;8.112;2022-09-02T08:55:32;1.85;;;1.75;;
69906;SDS011;57190;47.918;8.112;2022-09-02T08:58:08;1.60;;;1.50;;
69906;SDS011;57190;47.918;8.112;2022-09-02T09:00:38;1.58;;;1.48;;
69906;SDS011;57190;47.918;8.112;2022-09-02T09:03:15;2.00;;;1.90;;
69906;SDS011;57190;47.918;8.112;2022-09-02T09:06:05;1.92;;;1.83;;
69906;SDS011;57190;47.918;8.112;2022-09-02T09:14:36;2.03;;;1.92;;
69906;SDS011;57190;47.918;8.112;2022-09-02T09:17:24;2.50;;;1.73;;
69906;SDS011;57190;47.918;8.112;2022-09-02T09:19:58;1.88;;;1.77;;
69906;SDS011;57190;47.918;8.112;2022-09-02T09:22:31;1.75;;;1.65;;
69906;SDS011;57190;47.918;8.112;2022-09-02T09:25:01;1.90;;;1.80;;
69906;SDS011;57190;47.918;8.112;2022-09-02T09:27:31;2.00;;;1.90;;
69906;SDS011;57190;47.918;8.112;2022-09-02T09:29:57;2.05;;;1.83;;
69906;SDS011;57190;47.918;8.112;2022-09-02T09:32:31;1.88;;;1.77;;
69906;SDS011;57190;47.918;8.112;2022-09-02T09:37:40;1.67;;;1.58;;
69906;SDS011;57190;47.918;8.112;2022-09-02T09:42:44;2.75;;;1.60;;
69906;SDS011;57190;47.918;8.112;2022-09-02T09:45:16;1.95;;;1.85;;
69906;SDS011;57190;47.918;8.112;2022-09-02T09:48:00;2.00;;;1.90;;
69906;SDS011;57190;47.918;8.112;2022-09-02T09:50:48;2.00;;;1.90;;
69906;SDS011;57190;47.918;8.112;2022-09-02T09:53:34;2.10;;;2.00;;
69906;SDS011;57190;47.918;8.112;2022-09-02T09:58:34;1.90;;;1.80;;
69906;SDS011;57190;47.918;8.112;2022-09-02T10:01:10;2.10;;;1.98;;
69906;SDS011;57190;47.918;8.112;2022-09-02T10:03:40;1.77;;;1.67;;
69906;SDS011;57190;47.918;8.112;2022-09-02T10:06:22;2.10;;;1.95;;
69906;SDS011;57190;47.918;8.112;2022-09-02T10:09:04;2.00;;;1.90;;
69906;SDS011;57190;47.918;8.112;2022-09-02T10:11:39;2.38;;;2.10;;
69906;SDS011;57190;47.918;8.112;2022-09-02T10:30:13;1.80;;;1.70;;
69906;SDS011;57190;47.918;8.112;2022-09-02T10:41:42;1.83;;;1.67;;
69906;SDS011;57190;47.918;8.112;2022-09-02T10:46:58;1.95;;;1.85;;
69906;SDS011;57190;47.918;8.112;2022-09-02T10:53:36;2.30;;;2.10;;
69906;SDS011;57190;47.918;8.112;2022-09-02T10:55:37;2.70;;;2.00;;
69906;SDS011;57190;47.918;8.112;2022-09-02T10:58:20;1.83;;;1.73;;
69906;SDS011;57190;47.918;8.112;2022-09-02T11:00:47;2.20;;;2.10;;
69906;SDS011;57190;47.918;8.112;2022-09-02T11:06:02;2.22;;;2.13;;
69906;SDS011;57190;47.918;8.112;2022-09-02T11:08:46;2.00;;;1.90;;
69906;SDS011;57190;47.918;8.112;2022-09-02T11:11:21;1.90;;;1.80;;
69906;SDS011;57190;47.918;8.112;2022-09-02T11:16:53;2.00;;;1.90;;
69906;SDS011;57190;47.918;8.112;2022-09-02T11:22:16;4.22;;;2.70;;
69906;SDS011;57190;47.918;8.112;2022-09-02T11:24:50;2.00;;;1.90;;
69906;SDS011;57190;47.918;8.112;2022-09-02T11:30:20;2.30;;;2.10;;
69906;SDS011;57190;47.918;8.112;2022-09-02T11:35:39;2.15;;;1.95;;
69906;SDS011;57190;47.918;8.112;2022-09-02T11:41:12;2.08;;;1.98;;
69906;SDS011;57190;47.918;8.112;2022-09-02T11:44:08;1.90;;;1.80;;
69906;SDS011;57190;47.918;8.112;2022-09-02T11:55:15;2.50;;;2.30;;
69906;SDS011;57190;47.918;8.112;2022-09-02T11:57:53;2.03;;;1.92;;
69906;SDS011;57190;47.918;8.112;2022-09-02T12:03:23;2.50;;;2.35;;
69906;SDS011;57190;47.918;8.112;2022-09-02T12:06:06;2.38;;;2.20;;
69906;SDS011;57190;47.918;8.112;2022-09-02T12:11:04;2.13;;;1.98;;
69906;SDS011;57190;47.918;8.112;2022-09-02T12:18:36;2.25;;;2.05;;
69906;SDS011;57190;47.918;8.112;2022-09-02T12:21:04;2.63;;;2.42;;
69906;SDS011;57190;47.918;8.112;2022-09-02T12:27:03;2.30;;;2.10;;
69906;SDS011;57190;47.918;8.112;2022-09-02T12:29:12;2.00;;;1.90;;
69906;SDS011;57190;47.918;8.112;2022-09-02T12:31:56;2.35;;;2.20;;
69906;SDS011;57190;47.918;8.112;2022-09-02T12:36:48;1.90;;;1.80;;
69906;SDS011;57190;47.918;8.112;2022-09-02T12:57:43;1.98;;;1.88;;
69906;SDS011;57190;47.918;8.112;2022-09-02T13:08:37;1.90;;;1.80;;
69906;SDS011;57190;47.918;8.112;2022-09-02T13:12:03;1.90;;;1.80;;
69906;SDS011;57190;47.918;8.112;2022-09-02T13:15:10;1.80;;;1.70;;
69906;SDS011;57190;47.918;8.112;2022-09-02T13:18:11;2.00;;;1.90;;
69906;SDS011;57190;47.918;8.112;2022-09-02T13:20:55;1.95;;;1.85;;
69906;SDS011;57190;47.918;8.112;2022-09-02T13:34:48;2.10;;;2.00;;
69906;SDS011;57190;47.918;8.112;2022-09-02T13:37:52;1.67;;;1.58;;
69906;SDS011;57190;47.918;8.112;2022-09-02T13:40:20;1.52;;;1.42;;
69906;SDS011;57190;47.918;8.112;2022-09-02T13:42:53;2.05;;;1.60;;
69906;SDS011;57190;47.918;8.112;2022-09-02T13:45:23;1.98;;;1.73;;
69906;SDS011;57190;47.918;8.112;2022-09-02T13:47:51;1.70;;;1.60;;
69906;SDS011;57190;47.918;8.112;2022-09-02T13:50:22;2.03;;;1.90;;
69906;SDS011;57190;47.918;8.112;2022-09-02T13:52:54;1.92;;;1.83;;
69906;SDS011;57190;47.918;8.112;2022-09-02T13:55:22;1.90;;;1.80;;
69906;SDS011;57190;47.918;8.112;2022-09-02T13:58:04;1.95;;;1.85;;
69906;SDS011;57190;47.918;8.112;2022-09-02T14:00:36;2.00;;;1.90;;
69906;SDS011;57190;47.918;8.112;2022-09-02T14:03:05;1.83;;;1.73;;
69906;SDS011;57190;47.918;8.112;2022-09-02T14:05:32;1.90;;;1.80;;
69906;SDS011;57190;47.918;8.112;2022-09-02T14:08:00;1.77;;;1.67;;
69906;SDS011;57190;47.918;8.112;2022-09-02T14:10:29;1.92;;;1.70;;
69906;SDS011;57190;47.918;8.112;2022-09-02T14:12:58;2.10;;;2.00;;
69906;SDS011;57190;47.918;8.112;2022-09-02T14:15:26;2.85;;;2.28;;
69906;SDS011;57190;47.918;8.112;2022-09-02T14:18:07;1.85;;;1.75;;
69906;SDS011;57190;47.918;8.112;2022-09-02T14:20:35;1.98;;;1.88;;
69906;SDS011;57190;47.918;8.112;2022-09-02T14:23:03;1.95;;;1.85;;
69906;SDS011;57190;47.918;8.112;2022-09-02T14:25:34;1.83;;;1.73;;
69906;SDS011;57190;47.918;8.112;2022-09-02T14:28:03;2.15;;;2.05;;
69906;SDS011;57190;47.918;8.112;2022-09-02T14:30:36;1.83;;;1.73;;
69906;SDS011;57190;47.918;8.112;2022-09-02T14:33:17;2.03;;;1.80;;
69906;SDS011;57190;47.918;8.112;2022-09-02T14:36:06;2.05;;;1.95;;
69906;SDS011;57190;47.918;8.112;2022-09-02T14:38:34;2.08;;;1.98;;
69906;SDS011;57190;47.918;8.112;2022-09-02T14:43:50;2.25;;;2.15;;
69906;SDS011;57190;47.918;8.112;2022-09-02T14:46:23;2.00;;;1.90;;
69906;SDS011;57190;47.918;8.112;2022-09-02T14:49:08;2.45;;;2.35;;
69906;SDS011;57190;47.918;8.112;2022-09-02T14:51:45;1.67;;;1.58;;
69906;SDS011;57190;47.918;8.112;2022-09-02T14:54:31;2.20;;;2.03;;
69906;SDS011;57190;47.918;8.112;2022-09-02T14:56:59;2.17;;;2.08;;
69906;SDS011;57190;47.918;8.112;2022-09-02T14:59:24;2.25;;;2.15;;
69906;SDS011;57190;47.918;8.112;2022-09-02T15:01:50;2.78;;;1.90;;
69906;SDS011;57190;47.918;8.112;2022-09-02T15:04:18;2.33;;;2.22;;
69906;SDS011;57190;47.918;8.112;2022-09-02T15:06:45;1.90;;;1.80;;
69906;SDS011;57190;47.918;8.112;2022-09-02T15:09:11;2.55;;;2.00;;
69906;SDS011;57190;47.918;8.112;2022-09-02T15:11:39;2.22;;;2.10;;
69906;SDS011;57190;47.918;8.112;2022-09-02T15:14:12;2.10;;;2.00;;
69906;SDS011;57190;47.918;8.112;2022-09-02T15:16:38;2.30;;;2.17;;
69906;SDS011;57190;47.918;8.112;2022-09-02T15:19:04;2.45;;;2.25;;
69906;SDS011;57190;47.918;8.112;2022-09-02T15:21:30;2.00;;;1.90;;
69906;SDS011;57190;47.918;8.112;2022-09-02T15:23:56;2.17;;;1.80;;
69906;SDS011;57190;47.918;8.112;2022-09-02T15:26:21;2.10;;;2.00;;
69906;SDS011;57190;47.918;8.112;2022-09-02T15:28:47;2.10;;;2.00;;
69906;SDS011;57190;47.918;8.112;2022-09-02T15:31:13;2.20;;;2.10;;
69906;SDS011;57190;47.918;8.112;2022-09-02T15:33:39;2.13;;;2.03;;
69906;SDS011;57190;47.918;8.112;2022-09-02T15:38:36;2.40;;;2.30;;
69906;SDS011;57190;47.918;8.112;2022-09-02T15:43:47;2.45;;;2.13;;
69906;SDS011;57190;47.918;8.112;2022-09-02T15:46:19;1.92;;;1.83;;
69906;SDS011;57190;47.918;8.112;2022-09-02T15:48:52;2.00;;;1.90;;
69906;SDS011;57190;47.918;8.112;2022-09-02T15:51:19;2.22;;;2.10;;
69906;SDS011;57190;47.918;8.112;2022-09-02T15:53:46;2.40;;;2.30;;
69906;SDS011;57190;47.918;8.112;2022-09-02T15:56:18;2.20;;;2.10;;
69906;SDS011;57190;47.918;8.112;2022-09-02T15:58:45;2.60;;;1.92;;
69906;SDS011;57190;47.918;8.112;2022-09-02T16:01:11;2.03;;;1.92;;
69906;SDS011;57190;47.918;8.112;2022-09-02T16:03:37;2.05;;;1.95;;
69906;SDS011;57190;47.918;8.112;2022-09-02T16:06:04;1.88;;;1.77;;
69906;SDS011;57190;47.918;8.112;2022-09-02T16:08:32;1.80;;;1.70;;
69906;SDS011;57190;47.918;8.112;2022-09-02T16:11:03;2.58;;;2.38;;
69906;SDS011;57190;47.918;8.112;2022-09-02T16:13:30;2.75;;;2.50;;
69906;SDS011;57190;47.918;8.112;2022-09-02T16:16:06;2.58;;;2.38;;
69906;SDS011;57190;47.918;8.112;2022-09-02T16:18:34;2.78;;;2.38;;
69906;SDS011;57190;47.918;8.112;2022-09-02T16:21:01;2.08;;;1.70;;
69906;SDS011;57190;47.918;8.112;2022-09-02T16:23:28;1.98;;;1.88;;
69906;SDS011;57190;47.918;8.112;2022-09-02T16:28:40;2.47;;;2.00;;
69906;SDS011;57190;47.918;8.112;2022-09-02T16:31:08;3.38;;;2.40;;
69906;SDS011;57190;47.918;8.112;2022-09-02T16:33:35;1.88;;;1.77;;
69906;SDS011;57190;47.918;8.112;2022-09-02T16:36:01;1.88;;;1.77;;
69906;SDS011;57190;47.918;8.112;2022-09-02T16:38:28;1.90;;;1.80;;
69906;SDS011;57190;47.918;8.112;2022-09-02T16:40:54;1.58;;;1.48;;
69906;SDS011;57190;47.918;8.112;2022-09-02T16:43:21;2.33;;;1.48;;
69906;SDS011;57190;47.918;8.112;2022-09-02T16:45:48;1.40;;;1.30;;
69906;SDS011;57190;47.918;8.112;2022-09-02T16:48:16;1.27;;;1.20;;
69906;SDS011;57190;47.918;8.112;2022-09-02T16:50:43;1.27;;;1.17;;
69906;SDS011;57190;47.918;8.112;2022-09-02T16:53:09;1.00;;;1.00;;
69906;SDS011;57190;47.918;8.112;2022-09-02T16:55:39;1.20;;;1.10;;
69906;SDS011;57190;47.918;8.112;2022-09-02T16:58:06;1.20;;;1.10;;
69906;SDS011;57190;47.918;8.112;2022-09-02T17:00:34;1.23;;;1.23;;
69906;SDS011;57190;47.918;8.112;2022-09-02T17:03:03;1.30;;;1.20;;
69906;SDS011;57190;47.918;8.112;2022-09-02T17:05:28;1.20;;;1.10;;
69906;SDS011;57190;47.918;8.112;2022-09-02T17:07:54;1.20;;;1.10;;
69906;SDS011;57190;47.918;8.112;2022-09-02T17:10:22;1.00;;;1.00;;
69906;SDS011;57190;47.918;8.112;2022-09-02T17:12:47;1.20;;;1.10;;
69906;SDS011;57190;47.918;8.112;2022-09-02T17:15:13;0.90;;;0.90;;
69906;SDS011;57190;47.918;8.112;2022-09-02T17:17:39;1.42;;;1.05;;
69906;SDS011;57190;47.918;8.112;2022-09-02T17:20:06;0.85;;;0.85;;